Time;durP1;ratioP1;P1;durP2;ratioP2;P2;SDS_P1;SDS_P2;PMS_P1;PMS_P2;Temp;Humidity;BMP_temperature;BMP_pressure;BME280_temperature;BME280_humidity;BME280_pressure;Samples;Min_cycle;Max_cycle;Signal;HPM_P1;HPM_P2
2022/10/12 00:01:46;;;;;;;9.27;8.40;;;;;;;-142.65;87.88;50178.75;5116788;28;20192;-66
2022/10/12 00:04:12;;;;;;;11.23;10.27;;;;;;;-142.65;87.85;50174.75;5116469;28;20233;-66
2022/10/12 00:06:38;;;;;;;12.90;11.17;;;;;;;-142.65;87.67;50176.75;5116677;28;20192;-66
2022/10/12 00:09:05;;;;;;;16.20;12.20;;;;;;;-142.65;87.48;50170.78;5116635;28;20185;-66
2022/10/12 00:11:31;;;;;;;14.77;10.90;;;;;;;-142.65;87.40;50178.75;5116203;28;20219;-66
2022/10/12 00:13:58;;;;;;;13.67;10.33;;;;;;;-142.65;87.72;50174.75;5116169;28;20193;-66
2022/10/12 00:16:29;;;;;;;15.40;10.23;;;;;;;-142.65;87.75;50178.75;5115535;28;20648;-66
2022/10/12 00:18:57;;;;;;;14.97;11.20;;;;;;;-142.65;87.89;50180.75;5116195;28;20183;-66
2022/10/12 00:21:25;;;;;;;15.97;10.83;;;;;;;-142.65;88.10;50180.75;5116073;28;20208;-66
2022/10/12 00:23:54;;;;;;;11.57;10.37;;;;;;;-142.65;88.12;50178.75;5116069;28;20187;-66
2022/10/12 00:26:22;;;;;;;15.50;11.13;;;;;;;-142.65;88.09;50178.75;5116050;28;20192;-66
2022/10/12 00:28:57;;;;;;;17.53;11.33;;;;;;;-142.65;87.95;50172.78;5116554;28;20199;-66
2022/10/12 00:31:25;;;;;;;17.20;11.70;;;;;;;-142.65;88.06;50182.72;5115876;28;20227;-66
2022/10/12 00:33:52;;;;;;;12.20;11.03;;;;;;;-142.65;88.25;50180.75;5115897;28;20211;-66
2022/10/12 00:36:18;;;;;;;11.03;9.90;;;;;;;-142.65;88.28;50176.75;5116339;28;20207;-66
2022/10/12 00:38:45;;;;;;;12.60;10.27;;;;;;;-142.65;88.39;50182.72;5116354;28;20188;-66
2022/10/12 00:41:14;;;;;;;12.70;11.17;;;;;;;-142.65;88.50;50180.75;5116241;28;20197;-66
2022/10/12 00:43:41;;;;;;;17.57;10.87;;;;;;;-142.65;88.55;50178.75;5116363;28;20183;-66
2022/10/12 00:46:17;;;;;;;12.13;11.13;;;;;;;-142.65;88.58;50180.75;5115987;28;20203;-66
2022/10/12 00:48:48;;;;;;;19.30;11.87;;;;;;;-142.65;88.42;50176.75;5115954;28;20176;-66
2022/10/12 00:51:18;;;;;;;11.40;10.33;;;;;;;-142.65;88.60;50178.75;5115736;28;20548;-66
2022/10/12 00:53:51;;;;;;;16.83;11.43;;;;;;;-142.65;88.63;50178.75;5115771;28;20191;-66
2022/10/12 00:56:22;;;;;;;13.07;11.13;;;;;;;-142.65;88.54;50178.75;5115766;28;20543;-66
2022/10/12 00:58:50;;;;;;;13.63;10.90;;;;;;;-142.65;88.49;50178.75;5116026;28;20527;-66
2022/10/12 01:01:17;;;;;;;12.67;9.83;;;;;;;-142.65;88.56;50180.75;5115826;28;20208;-66
2022/10/12 01:03:44;;;;;;;10.33;9.37;;;;;;;-142.65;88.52;50174.75;5115402;28;20571;-66
2022/10/12 01:06:11;;;;;;;11.97;10.83;;;;;;;-142.65;88.36;50180.75;5115551;28;20196;-66
2022/10/12 01:08:37;;;;;;;13.43;10.03;;;;;;;-142.65;88.21;50174.75;5115200;28;20185;-66
2022/10/12 01:11:04;;;;;;;10.40;9.40;;;;;;;-142.65;88.06;50180.75;5115303;28;20562;-66
2022/10/12 01:13:30;;;;;;;10.60;9.27;;;;;;;-142.65;88.06;50174.75;5115148;28;20195;-66
2022/10/12 01:16:03;;;;;;;14.97;10.43;;;;;;;-142.65;87.97;50182.72;5115366;28;20191;-66
2022/10/12 01:18:39;;;;;;;14.50;11.47;;;;;;;-142.65;88.00;50180.75;5115308;28;20545;-66
2022/10/12 01:21:22;;;;;;;14.07;10.80;;;;;;;-142.65;88.16;50178.75;5114967;28;20207;-66
2022/10/12 01:24:14;;;;;;;16.57;10.80;;;;;;;-142.65;88.34;50178.75;5115210;28;20193;-66
2022/10/12 01:26:59;;;;;;;15.57;11.10;;;;;;;-142.65;88.38;50170.78;5114918;28;20620;-66
2022/10/12 01:29:29;;;;;;;16.93;12.30;;;;;;;-142.65;88.55;50178.75;5115333;28;20195;-66
2022/10/12 01:32:02;;;;;;;15.43;12.33;;;;;;;-142.65;88.74;50182.72;5115247;28;20206;-66
2022/10/12 01:34:44;;;;;;;16.30;12.43;;;;;;;-142.65;89.60;50182.72;5114711;28;20176;-66
2022/10/12 01:37:21;;;;;;;18.50;12.80;;;;;;;-142.65;89.61;50178.75;5114949;28;20627;-66
2022/10/12 01:39:54;;;;;;;17.40;13.20;;;;;;;-142.65;89.92;50180.75;5114863;28;20214;-66
2022/10/12 01:42:36;;;;;;;12.63;11.17;;;;;;;-142.65;89.87;50180.75;5114627;28;20179;-66
2022/10/12 01:45:09;;;;;;;14.43;11.67;;;;;;;-142.65;89.85;50178.75;5114825;28;20212;-66
2022/10/12 01:47:38;;;;;;;14.07;11.90;;;;;;;-142.65;90.01;50178.75;5114803;28;20175;-66
2022/10/12 01:50:09;;;;;;;16.63;12.30;;;;;;;-142.65;90.16;50182.72;5114673;28;20213;-66
2022/10/12 01:53:17;;;;;;;20.80;13.20;;;;;;;-142.65;90.53;50176.75;5114439;28;20174;-66
2022/10/12 01:56:03;;;;;;;13.97;11.27;;;;;;;-142.65;90.72;50170.78;5064886;28;20202;-66
2022/10/12 01:58:43;;;;;;;20.30;13.60;;;;;;;-142.65;90.87;50172.78;5114314;28;20195;-66
2022/10/12 02:01:37;;;;;;;18.10;12.93;;;;;;;-142.65;90.99;50176.75;5114704;28;20203;-66
2022/10/12 02:04:15;;;;;;;14.73;12.10;;;;;;;-142.65;91.19;50178.75;5114218;28;20180;-66
2022/10/12 02:06:51;;;;;;;17.00;12.77;;;;;;;-142.65;91.14;50178.75;5114192;28;20268;-66
2022/10/12 02:09:24;;;;;;;16.00;12.40;;;;;;;-142.65;91.08;50178.75;5114417;28;20191;-66
2022/10/12 02:11:54;;;;;;;16.03;12.00;;;;;;;-142.65;91.10;50174.75;5114282;28;20198;-66
2022/10/12 02:14:24;;;;;;;14.63;11.87;;;;;;;-142.65;91.15;50180.75;5114320;28;20193;-66
2022/10/12 02:16:58;;;;;;;13.50;11.10;;;;;;;-142.65;91.28;50180.75;5114312;28;20174;-66
2022/10/12 02:19:29;;;;;;;13.57;10.40;;;;;;;-142.65;91.28;50176.75;5114463;28;20182;-66
2022/10/12 02:22:00;;;;;;;12.47;10.83;;;;;;;-142.65;91.41;50182.72;5114237;28;20174;-66
2022/10/12 02:24:29;;;;;;;13.67;10.57;;;;;;;-142.65;91.28;50180.75;5114241;28;20724;-66
2022/10/12 02:26:56;;;;;;;18.47;12.80;;;;;;;-142.65;91.30;50180.75;5113916;28;20181;-66
2022/10/12 02:29:29;;;;;;;15.70;11.67;;;;;;;-142.65;91.39;50176.75;5113744;28;20177;-66
2022/10/12 02:32:06;;;;;;;19.47;12.70;;;;;;;-142.65;91.75;50176.75;5114030;28;20202;-66
2022/10/12 02:34:40;;;;;;;16.70;12.03;;;;;;;-142.65;91.52;50174.75;5113792;28;20179;-66
2022/10/12 02:37:30;;;;;;;16.93;12.50;;;;;;;-142.65;91.80;50182.72;5114055;28;20179;-66
2022/10/12 02:40:05;;;;;;;20.07;13.03;;;;;;;-142.65;92.15;50182.72;5113335;28;20219;-66
2022/10/12 02:42:37;;;;;;;14.20;12.07;;;;;;;-142.65;92.07;50178.75;5113984;28;20175;-66
2022/10/12 02:45:25;;;;;;;16.53;12.57;;;;;;;-142.65;92.21;50178.75;5113638;28;20558;-66
2022/10/12 02:47:55;;;;;;;16.13;11.57;;;;;;;-142.65;92.09;50180.75;5113913;28;20190;-66
2022/10/12 02:50:23;;;;;;;26.13;13.67;;;;;;;-142.65;92.20;50174.75;5113442;28;20219;-66
2022/10/12 02:52:51;;;;;;;12.13;11.30;;;;;;;-142.65;92.22;50178.75;5113904;28;20188;-66
2022/10/12 02:55:18;;;;;;;25.13;14.73;;;;;;;-142.65;92.32;50178.75;5113800;28;20190;-66
2022/10/12 02:57:45;;;;;;;22.53;14.07;;;;;;;-142.65;92.66;50174.75;5113534;28;20203;-66
2022/10/12 03:00:12;;;;;;;16.87;14.10;;;;;;;-142.65;92.69;50178.75;5113454;28;20209;-66
2022/10/12 03:02:38;;;;;;;20.43;14.53;;;;;;;-142.65;92.85;50180.75;5114038;28;20649;-66
2022/10/12 03:05:05;;;;;;;24.13;13.63;;;;;;;-142.65;93.01;50180.75;5113472;28;20196;-66
2022/10/12 03:07:31;;;;;;;18.00;13.17;;;;;;;-142.65;92.98;50178.75;5113344;28;20654;-66
2022/10/12 03:09:57;;;;;;;17.97;13.17;;;;;;;-142.65;92.99;50174.75;5113306;28;20223;-66
2022/10/12 03:12:24;;;;;;;12.27;11.03;;;;;;;-142.65;93.05;50178.75;5113805;28;20188;-66
2022/10/12 03:14:50;;;;;;;19.93;13.63;;;;;;;-142.65;93.07;50176.75;5113294;28;20193;-66
2022/10/12 03:17:16;;;;;;;19.87;12.90;;;;;;;-142.65;92.96;50182.72;5113958;28;20183;-66
2022/10/12 03:19:43;;;;;;;21.57;12.37;;;;;;;-142.65;93.04;50180.75;5113530;28;20563;-66
2022/10/12 03:22:09;;;;;;;13.83;11.70;;;;;;;-142.65;93.02;50180.75;5113347;28;20176;-66
2022/10/12 03:24:35;;;;;;;16.60;12.87;;;;;;;-142.65;92.83;50180.75;5113814;28;20195;-66
2022/10/12 03:27:02;;;;;;;14.47;12.93;;;;;;;-142.65;92.86;50176.75;5113300;28;20188;-66
2022/10/12 03:29:28;;;;;;;18.67;12.37;;;;;;;-142.65;92.85;50180.75;5113253;28;20207;-66
2022/10/12 03:31:54;;;;;;;16.83;11.03;;;;;;;-142.65;93.00;50178.75;5113132;28;20209;-66
2022/10/12 03:34:21;;;;;;;15.30;12.37;;;;;;;-142.65;93.03;50172.78;5113201;28;20197;-66
2022/10/12 03:36:47;;;;;;;14.23;13.00;;;;;;;-142.65;93.04;50174.75;5113819;28;20180;-66
2022/10/12 03:39:14;;;;;;;20.17;12.70;;;;;;;-142.65;93.11;50176.75;5113162;28;20196;-67
2022/10/12 03:41:40;;;;;;;12.77;11.33;;;;;;;-142.65;93.10;50180.75;5113083;28;20204;-66
2022/10/12 03:44:06;;;;;;;16.87;13.27;;;;;;;-142.65;93.21;50178.75;5113133;28;20179;-66
2022/10/12 03:46:33;;;;;;;17.67;13.00;;;;;;;-142.65;93.26;50182.72;5113078;28;20662;-66
2022/10/12 03:48:59;;;;;;;20.30;13.30;;;;;;;-142.65;93.19;50180.75;5113638;28;20645;-66
2022/10/12 03:51:26;;;;;;;17.90;12.43;;;;;;;-142.65;93.23;50180.75;5113618;28;20211;-66
2022/10/12 03:53:52;;;;;;;21.97;12.50;;;;;;;-142.65;93.14;50176.75;5116723;28;20198;-66
2022/10/12 03:56:18;;;;;;;13.03;11.77;;;;;;;-142.65;93.19;50182.72;5116675;28;20552;-66
2022/10/12 03:58:45;;;;;;;13.87;12.43;;;;;;;-142.65;93.21;50180.75;5116617;28;20657;-66
2022/10/12 04:01:11;;;;;;;15.17;12.63;;;;;;;-142.65;93.21;50180.75;5117086;28;20584;-66
2022/10/12 04:03:38;;;;;;;17.57;13.40;;;;;;;-142.65;93.27;50180.75;5116810;28;20196;-66
2022/10/12 04:06:04;;;;;;;12.03;10.80;;;;;;;-142.65;93.16;50182.72;5116488;28;20184;-66
2022/10/12 04:08:30;;;;;;;15.67;12.47;;;;;;;-142.65;93.16;50172.78;5116442;28;20196;-66
2022/10/12 04:10:57;;;;;;;19.73;12.83;;;;;;;-142.65;93.13;50176.75;5116356;28;20207;-66
2022/10/12 04:13:23;;;;;;;14.17;12.13;;;;;;;-142.65;93.02;50172.78;5116169;28;20204;-66
2022/10/12 04:15:50;;;;;;;13.60;12.17;;;;;;;-142.65;92.89;50182.72;5116222;28;20195;-66
2022/10/12 04:18:16;;;;;;;17.90;12.03;;;;;;;-142.65;92.87;50176.75;5116781;28;20256;-66
2022/10/12 04:20:46;;;;;;;15.43;12.97;;;;;;;-142.65;92.66;50178.75;5116176;28;20207;-66
2022/10/12 04:23:12;;;;;;;13.60;11.97;;;;;;;-142.65;92.63;50178.75;5116404;28;20171;-66
2022/10/12 04:25:39;;;;;;;13.77;12.50;;;;;;;-142.65;92.54;50178.75;5116438;28;20182;-66
2022/10/12 04:28:05;;;;;;;18.40;13.80;;;;;;;-142.65;92.52;50176.75;5116033;28;20202;-66
2022/10/12 04:30:32;;;;;;;15.83;11.63;;;;;;;-142.65;92.51;50178.75;5115943;28;20206;-66
2022/10/12 04:32:58;;;;;;;13.87;12.40;;;;;;;-142.65;92.49;50178.75;5115928;28;20188;-66
2022/10/12 04:35:25;;;;;;;21.63;12.03;;;;;;;-142.65;92.56;50180.75;5116464;28;20184;-66
2022/10/12 04:37:52;;;;;;;16.93;12.40;;;;;;;-142.65;92.57;50172.78;5116103;28;20187;-66
2022/10/12 04:40:18;;;;;;;15.97;13.17;;;;;;;-142.65;92.42;50170.78;5115821;28;20223;-66
2022/10/12 04:42:44;;;;;;;14.17;12.07;;;;;;;-142.65;92.54;50180.75;5115735;28;20188;-66
2022/10/12 04:45:11;;;;;;;14.43;12.40;;;;;;;-142.65;92.56;50182.72;5115864;28;20192;-66
2022/10/12 04:47:37;;;;;;;20.57;11.57;;;;;;;-142.65;92.58;50178.75;5115598;28;20551;-66
2022/10/12 04:50:05;;;;;;;17.77;12.00;;;;;;;-142.65;92.59;50178.75;5115708;28;20633;-66
2022/10/12 04:52:31;;;;;;;12.60;11.20;;;;;;;-142.65;92.57;50180.75;5115473;28;20214;-66
2022/10/12 04:54:57;;;;;;;13.53;12.17;;;;;;;-142.65;92.54;50170.78;5115526;28;20189;-66
2022/10/12 04:57:24;;;;;;;14.70;11.53;;;;;;;-142.65;92.61;50182.72;5115447;28;20199;-66
2022/10/12 04:59:50;;;;;;;17.50;12.03;;;;;;;-142.65;92.53;50178.75;5115345;28;20284;-66
2022/10/12 05:02:16;;;;;;;15.60;13.27;;;;;;;-142.65;92.49;50180.75;5115027;28;20179;-66
2022/10/12 05:04:43;;;;;;;14.70;12.90;;;;;;;-142.65;92.35;50178.75;5115705;28;20182;-66
2022/10/12 05:07:09;;;;;;;14.00;12.60;;;;;;;-142.65;92.23;50178.75;5115261;28;20203;-66
2022/10/12 05:09:35;;;;;;;12.10;11.17;;;;;;;-142.65;92.15;50178.75;5115445;28;20171;-66
2022/10/12 05:12:02;;;;;;;15.30;11.97;;;;;;;-142.65;92.05;50178.75;5115658;28;20548;-66
2022/10/12 05:14:28;;;;;;;12.97;11.70;;;;;;;-142.65;92.14;50178.75;5115047;28;20205;-66
2022/10/12 05:17:02;;;;;;;14.70;11.00;;;;;;;-142.65;91.97;50178.75;5115654;28;20180;-66
2022/10/12 05:19:28;;;;;;;12.77;11.50;;;;;;;-142.65;91.89;50178.75;5115191;28;20202;-66
2022/10/12 05:21:54;;;;;;;17.27;12.00;;;;;;;-142.65;91.94;50180.75;5114992;28;20212;-66
2022/10/12 05:24:21;;;;;;;13.43;12.07;;;;;;;-142.65;91.68;50178.75;5114987;28;20178;-66
2022/10/12 05:26:47;;;;;;;21.20;11.93;;;;;;;-142.65;91.67;50182.72;5096508;28;20296;-66
2022/10/12 05:29:13;;;;;;;16.30;12.70;;;;;;;-142.65;91.64;50182.72;5114795;28;20671;-66
2022/10/12 05:31:40;;;;;;;15.23;11.73;;;;;;;-142.65;91.58;50178.75;5114927;28;20570;-66
2022/10/12 05:34:06;;;;;;;16.87;10.73;;;;;;;-142.65;91.68;50182.72;5114774;28;20196;-66
2022/10/12 05:36:32;;;;;;;16.83;12.20;;;;;;;-142.65;91.73;50174.75;5114940;28;20198;-66
2022/10/12 05:38:59;;;;;;;17.53;12.70;;;;;;;-142.65;91.65;50168.78;5114645;28;20187;-66
2022/10/12 05:41:25;;;;;;;13.63;12.10;;;;;;;-142.65;91.79;50176.75;5114718;28;20566;-66
2022/10/12 05:43:52;;;;;;;15.83;13.10;;;;;;;-142.65;91.70;50178.75;5114489;28;20186;-66
2022/10/12 05:46:18;;;;;;;16.90;11.80;;;;;;;-142.65;91.57;50176.75;5114482;28;20187;-66
2022/10/12 05:48:45;;;;;;;11.73;10.83;;;;;;;-142.65;91.72;50180.75;5114752;28;20210;-66
2022/10/12 05:51:11;;;;;;;12.17;11.23;;;;;;;-142.65;91.71;50174.75;5114284;28;20650;-66
2022/10/12 05:53:38;;;;;;;12.43;11.40;;;;;;;-142.65;91.70;50182.72;5114335;28;20665;-66
2022/10/12 05:56:04;;;;;;;14.50;10.60;;;;;;;-142.65;91.65;50182.72;5114324;28;20186;-66
2022/10/12 05:58:31;;;;;;;15.80;12.40;;;;;;;-142.65;91.69;50174.75;5114567;28;20196;-66
2022/10/12 06:01:11;;;;;;;16.57;12.23;;;;;;;-142.65;91.73;50182.72;5114522;28;20202;-66
2022/10/12 06:03:41;;;;;;;13.27;11.40;;;;;;;-142.65;91.46;50182.72;5114544;28;20169;-66
2022/10/12 06:06:08;;;;;;;15.63;10.93;;;;;;;-142.65;91.35;50182.72;5114203;28;20177;-66
2022/10/12 06:08:35;;;;;;;12.13;10.37;;;;;;;-142.65;91.41;50180.75;5114390;28;20198;-66
2022/10/12 06:11:01;;;;;;;20.23;11.43;;;;;;;-142.65;91.37;50178.75;5113903;28;20207;-66
2022/10/12 06:13:28;;;;;;;20.50;12.17;;;;;;;-142.65;91.48;50174.75;5113558;28;20198;-66
2022/10/12 06:15:54;;;;;;;11.67;10.77;;;;;;;-142.65;91.47;50176.75;5113848;28;20233;-66
2022/10/12 06:18:21;;;;;;;12.57;11.07;;;;;;;-142.65;91.49;50180.75;5114002;28;20182;-66
2022/10/12 06:20:48;;;;;;;12.40;11.30;;;;;;;-142.65;91.57;50180.75;5114696;28;20211;-66
2022/10/12 06:23:15;;;;;;;13.43;11.53;;;;;;;-142.65;91.54;50172.78;5114026;28;20197;-66
2022/10/12 06:25:41;;;;;;;12.47;11.33;;;;;;;-142.65;91.67;50180.75;5114184;28;20174;-66
2022/10/12 06:28:07;;;;;;;11.87;10.83;;;;;;;-142.65;91.68;50178.75;5114368;28;20187;-66
2022/10/12 06:30:34;;;;;;;12.80;11.40;;;;;;;-142.65;91.94;50180.75;5113694;28;20214;-66
2022/10/12 06:33:00;;;;;;;13.23;11.80;;;;;;;-142.65;91.97;50182.72;5113909;28;20559;-66
2022/10/12 06:35:26;;;;;;;12.87;11.53;;;;;;;-142.65;91.93;50178.75;5113991;28;20174;-66
2022/10/12 06:37:53;;;;;;;23.17;13.60;;;;;;;-142.65;92.43;50180.75;5113704;28;20194;-66
2022/10/12 06:40:19;;;;;;;16.57;13.17;;;;;;;-142.65;92.59;50178.75;5113614;28;20294;-66
2022/10/12 06:42:48;;;;;;;14.40;12.93;;;;;;;-142.65;92.65;50180.75;5114249;28;20173;-66
2022/10/12 06:45:15;;;;;;;16.37;12.97;;;;;;;-142.65;92.55;50182.72;5113676;28;20188;-66
2022/10/12 06:47:41;;;;;;;15.37;13.20;;;;;;;-142.65;92.63;50180.75;5113550;28;20202;-66
2022/10/12 06:50:08;;;;;;;17.07;13.93;;;;;;;-142.65;92.50;50180.75;5095550;28;20210;-66
2022/10/12 06:52:35;;;;;;;14.13;12.67;;;;;;;-142.65;92.36;50182.72;5113791;28;20568;-66
2022/10/12 06:55:03;;;;;;;19.20;12.93;;;;;;;-142.65;92.36;50168.78;5113538;28;20184;-66
2022/10/12 06:57:30;;;;;;;12.87;11.60;;;;;;;-142.65;92.36;50172.78;5113873;28;20178;-66
2022/10/12 06:59:56;;;;;;;14.80;12.10;;;;;;;-142.65;92.48;50178.75;5113676;28;20222;-66
2022/10/12 07:02:22;;;;;;;21.73;13.70;;;;;;;-142.65;92.42;50178.75;5113437;28;20190;-66
2022/10/12 07:04:50;;;;;;;19.47;15.00;;;;;;;-142.65;92.70;50180.75;5113448;28;20190;-66
2022/10/12 07:07:17;;;;;;;17.20;14.77;;;;;;;-142.65;92.56;50178.75;5113438;28;20188;-66
2022/10/12 07:09:44;;;;;;;20.63;13.63;;;;;;;-142.65;92.58;50178.75;5113328;28;20206;-67
2022/10/12 07:12:10;;;;;;;24.90;16.30;;;;;;;-142.65;92.59;50180.75;5113640;28;20204;-66
2022/10/12 07:14:36;;;;;;;19.97;15.30;;;;;;;-142.65;92.65;50178.75;5113306;28;20200;-66
2022/10/12 07:17:03;;;;;;;29.07;14.87;;;;;;;-142.65;92.61;50180.75;5113621;28;20549;-66
2022/10/12 07:19:29;;;;;;;24.70;15.53;;;;;;;-142.65;92.65;50170.78;5114173;28;20196;-68
2022/10/12 07:21:55;;;;;;;23.50;16.33;;;;;;;-142.65;92.62;50180.75;5113157;28;20658;-66
2022/10/12 07:24:22;;;;;;;29.60;15.50;;;;;;;-142.65;92.60;50174.75;5113279;28;20196;-66
2022/10/12 07:26:49;;;;;;;22.33;14.80;;;;;;;-142.65;92.54;50182.72;5116722;28;20199;-66
2022/10/12 07:29:16;;;;;;;32.27;16.20;;;;;;;-142.65;92.35;50178.75;5117355;28;20187;-66
2022/10/12 07:31:42;;;;;;;18.43;15.13;;;;;;;-142.65;92.47;50178.75;5117000;28;20215;-66
2022/10/12 07:34:13;;;;;;;23.10;16.10;;;;;;;-142.65;92.37;50178.75;5117388;28;20220;-66
2022/10/12 07:36:43;;;;;;;35.57;16.87;;;;;;;-142.65;92.48;50182.72;5116989;28;20190;-66
2022/10/12 07:39:24;;;;;;;24.73;15.83;;;;;;;-142.65;92.51;50182.72;5117547;28;20600;-66
2022/10/12 07:41:51;;;;;;;26.33;15.43;;;;;;;-142.65;92.62;50174.75;5116862;28;20196;-66
2022/10/12 07:44:19;;;;;;;23.90;16.13;;;;;;;-142.65;92.73;50170.78;5116855;28;20203;-66
2022/10/12 07:46:45;;;;;;;34.17;16.27;;;;;;;-142.65;92.40;50178.75;5117079;28;20184;-66
2022/10/12 07:49:12;;;;;;;27.27;17.93;;;;;;;-142.65;92.51;50178.75;5116764;28;20188;-66
2022/10/12 07:51:39;;;;;;;29.23;17.07;;;;;;;-142.65;92.60;50178.75;5116861;28;20208;-66
2022/10/12 07:54:06;;;;;;;23.37;16.50;;;;;;;-142.65;92.28;50178.75;5116713;28;20185;-66
2022/10/12 07:56:33;;;;;;;30.53;15.97;;;;;;;-142.65;91.95;50168.78;5116987;28;20200;-66
2022/10/12 07:59:00;;;;;;;22.60;14.70;;;;;;;-142.65;91.53;50178.75;5116633;28;20185;-67
2022/10/12 08:01:28;;;;;;;30.83;15.33;;;;;;;-142.65;91.38;50172.78;5116447;28;20227;-68
2022/10/12 08:03:55;;;;;;;21.27;16.63;;;;;;;-142.65;90.50;50178.75;5116652;28;20527;-68
2022/10/12 08:06:29;;;;;;;26.87;15.40;;;;;;;-142.65;90.03;50178.75;5117019;28;20535;-68
2022/10/12 08:08:57;;;;;;;32.43;15.37;;;;;;;-142.65;89.05;50182.72;5116441;28;20209;-68
2022/10/12 08:11:24;;;;;;;28.10;15.73;;;;;;;-142.65;88.98;50178.75;5116275;28;20220;-68
2022/10/12 08:13:51;;;;;;;20.60;16.10;;;;;;;-142.65;88.66;50174.75;5116252;28;20200;-68
2022/10/12 08:16:19;;;;;;;29.17;15.03;;;;;;;-142.65;88.20;50178.75;5116278;28;20193;-68
2022/10/12 08:18:46;;;;;;;19.13;14.77;;;;;;;-142.65;88.09;50180.75;5116294;28;20186;-68
2022/10/12 08:21:14;;;;;;;27.80;15.80;;;;;;;-142.65;87.69;50180.75;5116088;28;20228;-68
2022/10/12 08:23:40;;;;;;;26.67;15.83;;;;;;;-142.65;87.69;50180.75;5116110;28;20175;-68
2022/10/12 08:26:07;;;;;;;18.07;13.20;;;;;;;-142.65;87.47;50170.78;5116378;28;20193;-68
2022/10/12 08:28:34;;;;;;;17.13;14.37;;;;;;;-142.65;86.95;50180.75;5116059;28;20193;-68
2022/10/12 08:31:05;;;;;;;17.37;13.67;;;;;;;-142.65;86.44;50174.75;5116106;28;20209;-66
2022/10/12 08:33:31;;;;;;;22.33;13.90;;;;;;;-142.65;86.04;50178.75;5116209;28;20202;-66
2022/10/12 08:36:02;;;;;;;24.93;14.00;;;;;;;-142.65;86.16;50170.78;5116159;28;20658;-66
2022/10/12 08:38:28;;;;;;;16.63;11.33;;;;;;;-142.65;85.36;50168.78;5115332;28;20181;-66
2022/10/12 08:41:01;;;;;;;16.50;10.87;;;;;;;-142.65;84.16;50172.78;5115723;28;20212;-66
2022/10/12 08:43:45;;;;;;;12.00;10.80;;;;;;;-142.65;83.64;50170.78;5115781;28;20184;-66
2022/10/12 08:46:11;;;;;;;11.37;10.20;;;;;;;-142.65;82.24;50180.75;5115734;28;20173;-66
2022/10/12 08:48:55;;;;;;;12.10;10.90;;;;;;;-142.65;82.30;50170.78;5115697;28;20194;-66
2022/10/12 08:51:26;;;;;;;23.77;11.73;;;;;;;-142.65;82.14;50176.75;5115643;28;20205;-66
2022/10/12 08:53:58;;;;;;;22.07;12.17;;;;;;;;;;5115733;28;20207;-66
2022/10/12 08:56:25;;;;;;;22.63;9.73;;;;;;;-142.65;81.19;50176.75;5115810;28;20180;-66
2022/10/12 08:58:52;;;;;;;14.80;9.13;;;;;;;-142.65;80.16;50174.75;5115726;28;20177;-66
2022/10/12 09:01:27;;;;;;;9.57;8.67;;;;;;;-142.65;78.29;50172.78;5115326;28;20216;-66
2022/10/12 09:04:21;;;;;;;10.97;8.10;;;;;;;-142.65;77.33;50170.78;5115610;28;20226;-66
2022/10/12 09:06:47;;;;;;;17.77;8.20;;;;;;;;;;5115550;28;20189;-66
2022/10/12 09:09:31;;;;;;;14.97;7.77;;;;;;;-142.65;76.99;50178.75;5115192;28;20189;-66
2022/10/12 09:12:30;;;;;;;10.87;8.90;;;;;;;-142.65;75.53;50170.78;5115347;28;20193;-66
2022/10/12 09:15:01;;;;;;;8.10;7.40;;;;;;;-142.65;74.70;50174.75;5115173;28;20198;-66
2022/10/12 09:17:46;;;;;;;8.73;7.00;;;;;;;;;;5115356;28;20587;-66
2022/10/12 09:20:31;;;;;;;9.53;7.67;;;;;;;-142.65;73.01;50162.81;5115184;28;20737;-67
2022/10/12 09:23:01;;;;;;;9.93;7.17;;;;;;;;;;5115307;28;20174;-66
2022/10/12 09:25:27;;;;;;;9.63;5.90;;;;;;;-142.65;73.46;50170.78;5115465;28;20204;-66
2022/10/12 09:28:05;;;;;;;8.70;5.90;;;;;;;-142.65;72.23;50170.78;5114869;28;20188;-66
2022/10/12 09:30:38;;;;;;;12.87;6.50;;;;;;;-142.65;71.92;50170.78;5115109;28;20209;-67
2022/10/12 09:33:31;;;;;;;6.50;5.97;;;;;;;-142.65;71.36;50174.75;5115086;28;20199;-67
2022/10/12 09:35:58;;;;;;;5.37;4.87;;;;;;;-142.65;70.24;50168.78;5114654;28;20196;-67
2022/10/12 09:38:24;;;;;;;8.13;5.77;;;;;;;-142.65;70.14;50168.78;5114725;28;20190;-67
2022/10/12 09:40:51;;;;;;;6.80;6.30;;;;;;;-142.65;70.13;50170.78;5114848;28;20569;-67
2022/10/12 09:43:17;;;;;;;6.60;6.07;;;;;;;-142.65;70.18;50176.75;5114491;28;20655;-67
2022/10/12 09:45:44;;;;;;;9.83;7.53;;;;;;;-142.65;70.16;50178.75;5115078;28;20654;-67
2022/10/12 09:48:15;;;;;;;7.67;7.00;;;;;;;-142.65;69.94;50170.78;5114731;28;20178;-67
2022/10/12 09:50:49;;;;;;;11.83;7.30;;;;;;;;;;5096180;28;20213;-67
2022/10/12 09:53:25;;;;;;;9.27;8.37;;;;;;;-142.65;70.35;50170.78;5114599;28;20197;-67
2022/10/12 09:56:00;;;;;;;13.23;9.20;;;;;;;-142.65;69.77;50174.75;5114637;28;20181;-67
2022/10/12 09:58:27;;;;;;;13.50;8.50;;;;;;;-142.65;69.16;50168.78;5114507;28;20576;-67
2022/10/12 10:01:18;;;;;;;12.20;8.73;;;;;;;-142.65;68.83;50170.78;5114416;28;20220;-67
2022/10/12 10:03:47;;;;;;;13.93;9.00;;;;;;;-142.65;68.94;50168.78;5114874;28;20589;-67
2022/10/12 10:06:14;;;;;;;18.33;11.30;;;;;;;;;;5114407;28;20638;-67
2022/10/12 10:08:42;;;;;;;17.87;10.37;;;;;;;;;;5114102;28;20187;-67
2022/10/12 10:11:20;;;;;;;12.63;8.27;;;;;;;-142.65;68.97;50164.81;5113991;28;20201;-67
2022/10/12 10:13:50;;;;;;;10.60;8.30;;;;;;;-142.65;67.97;50184.72;5114003;28;20215;-66
2022/10/12 10:16:19;;;;;;;9.40;7.80;;;;;;;-142.65;68.00;50170.78;5113985;28;20173;-66
2022/10/12 10:18:48;;;;;;;12.80;9.10;;;;;;;;;;5113971;28;20581;-66
2022/10/12 10:21:24;;;;;;;20.17;7.73;;;;;;;-142.65;67.02;50182.72;5114146;28;20215;-67
2022/10/12 10:23:55;;;;;;;7.50;6.90;;;;;;;-142.65;67.65;50170.78;5114221;28;20177;-67
2022/10/12 10:26:23;;;;;;;12.60;5.80;;;;;;;-142.65;67.91;50172.78;5114159;28;20185;-67
2022/10/12 10:28:55;;;;;;;6.60;6.00;;;;;;;-142.65;67.63;50176.75;5114086;28;20197;-67
2022/10/12 10:31:26;;;;;;;9.13;5.90;;;;;;;-142.65;67.70;50176.75;5113844;28;20213;-67
2022/10/12 10:34:14;;;;;;;9.13;5.93;;;;;;;-142.65;68.05;50176.75;5114003;28;20592;-67
2022/10/12 10:36:48;;;;;;;4.50;4.33;;;;;;;-142.65;68.34;50117.00;5114029;28;20176;-67
2022/10/12 10:39:19;;;;;;;4.53;4.23;;;;;;;;;;5113954;28;20177;-67
2022/10/12 10:41:46;;;;;;;4.67;4.03;;;;;;;-142.65;66.95;50170.78;5113798;28;20192;-67
2022/10/12 10:44:24;;;;;;;10.33;3.77;;;;;;;-142.65;66.47;50176.75;5113699;28;20189;-67
2022/10/12 10:46:52;;;;;;;4.40;3.93;;;;;;;-142.65;65.91;50180.75;5114219;28;20170;-67
2022/10/12 10:49:35;;;;;;;4.60;4.30;;;;;;;-142.65;64.24;50162.81;5113678;28;20185;-67
2022/10/12 10:52:03;;;;;;;4.50;4.10;;;;;;;-142.65;63.82;50172.78;5113784;28;20661;-67
2022/10/12 10:54:33;;;;;;;5.20;3.97;;;;;;;-142.65;61.76;50182.72;5113529;28;20177;-67
2022/10/12 10:57:20;;;;;;;9.73;3.50;;;;;;;-142.65;61.79;50164.81;5113541;28;20658;-67
2022/10/12 11:00:13;;;;;;;3.20;3.10;;;;;;;-142.65;61.34;50174.75;5113792;28;20539;-67
2022/10/12 11:03:23;;;;;;;3.73;3.43;;;;;;;-142.65;61.76;50172.78;5117700;28;20189;-67
2022/10/12 11:05:56;;;;;;;11.33;3.30;;;;;;;;;;5117887;28;20246;-67
2022/10/12 11:08:29;;;;;;;4.23;2.70;;;;;;;-142.65;61.70;50170.78;5118251;28;20176;-67
2022/10/12 11:11:02;;;;;;;3.43;3.10;;;;;;;-142.65;60.48;50170.78;5117482;28;20209;-67
2022/10/12 11:13:54;;;;;;;4.40;2.53;;;;;;;-142.65;60.85;50170.78;5117553;28;20705;-67
2022/10/12 11:16:36;;;;;;;2.70;2.60;;;;;;;-142.65;60.42;50174.75;5117447;28;20173;-67
2022/10/12 11:19:14;;;;;;;3.27;2.97;;;;;;;;;;5117723;28;20170;-67
2022/10/12 11:21:51;;;;;;;2.80;2.50;;;;;;;-142.65;59.70;50164.81;5117837;28;20678;-67
2022/10/12 11:24:25;;;;;;;2.93;2.73;;;;;;;-142.65;59.59;50164.81;5117612;28;20178;-67
2022/10/12 11:26:54;;;;;;;4.03;2.67;;;;;;;;;;5117572;28;20185;-67